Time;durP1;ratioP1;P1;durP2;ratioP2;P2;SDS_P1;SDS_P2;PMS_P1;PMS_P2;Temp;Humidity;BMP_temperature;BMP_pressure;BME280_temperature;BME280_humidity;BME280_pressure;Samples;Min_cycle;Max_cycle;Signal;HPM_P1;HPM_P2
2023/11/12 00:00:12;;;;;;;;;;;7.60;99.90;;;;;;8339710;28;19979;-72
2023/11/12 00:04:14;;;;;;;;;;;7.50;99.90;;;;;;8358358;28;19929;-71
2023/11/12 00:08:18;;;;;;;;;;;7.40;99.90;;;;;;8335214;28;19983;-71
2023/11/12 00:12:20;;;;;;;;;;;7.30;99.90;;;;;;8340895;28;19925;-71
2023/11/12 00:16:22;;;;;;;;;;;7.20;99.90;;;;;;8349605;28;19997;-70
2023/11/12 00:20:25;;;;;;;;;;;7.10;99.90;;;;;;8360585;28;20002;-71
2023/11/12 00:24:28;;;;;;;;;;;7.00;99.90;;;;;;8357084;28;20040;-72
2023/11/12 00:28:29;;;;;;;;;;;6.90;99.90;;;;;;8358774;28;20399;-71
2023/11/12 00:32:32;;;;;;;;;;;6.80;99.90;;;;;;8340673;28;19925;-71
2023/11/12 00:36:34;;;;;;;;;;;6.70;99.90;;;;;;8359653;28;19944;-70
2023/11/12 00:40:35;;;;;;;;;;;6.60;99.90;;;;;;8356522;28;19924;-71
2023/11/12 00:44:37;;;;;;;;;;;6.50;99.90;;;;;;8358752;28;19935;-70
2023/11/12 00:48:39;;;;;;;;;;;6.50;99.90;;;;;;8357644;28;20300;-70
2023/11/12 00:52:41;;;;;;;;;;;6.50;99.90;;;;;;8340732;28;19928;-71
2023/11/12 00:56:43;;;;;;;;;;;6.40;99.90;;;;;;8356404;28;19947;-71
2023/11/12 01:00:44;;;;;;;;;;;6.40;99.90;;;;;;8357687;28;20368;-71
2023/11/12 01:04:46;;;;;;;;;;;6.30;99.90;;;;;;8358612;28;19924;-71
2023/11/12 01:08:48;;;;;;;;;;;6.30;99.90;;;;;;8356783;28;19928;-71
2023/11/12 01:12:50;;;;;;;;;;;6.30;99.90;;;;;;8357241;28;19925;-71
2023/11/12 01:16:51;;;;;;;;;;;6.20;99.90;;;;;;8345446;28;19925;-71
2023/11/12 01:20:53;;;;;;;;;;;6.20;99.90;;;;;;8356530;28;19925;-71
2023/11/12 01:24:55;;;;;;;;;;;6.10;99.90;;;;;;8357306;28;19925;-70
2023/11/12 01:28:56;;;;;;;;;;;6.10;99.90;;;;;;8356856;28;19940;-70
2023/11/12 01:32:58;;;;;;;;;;;6.00;99.90;;;;;;8355042;28;19998;-71
2023/11/12 01:37:00;;;;;;;;;;;5.90;99.90;;;;;;8355643;28;19973;-71
2023/11/12 01:41:02;;;;;;;;;;;5.80;99.90;;;;;;8342406;28;19944;-71
2023/11/12 01:45:04;;;;;;;;;;;5.80;99.90;;;;;;8338455;28;20027;-71
2023/11/12 01:49:06;;;;;;;;;;;5.70;99.90;;;;;;8352856;28;20442;-71
2023/11/12 01:53:10;;;;;;;;;;;5.70;99.90;;;;;;8338614;28;19931;-71
2023/11/12 01:57:12;;;;;;;;;;;5.60;99.90;;;;;;8357926;28;19929;-72
2023/11/12 02:01:13;;;;;;;;;;;5.60;99.90;;;;;;8355949;28;20005;-70
2023/11/12 02:05:15;;;;;;;;;;;5.50;99.90;;;;;;8354732;28;20405;-71
2023/11/12 02:09:17;;;;;;;;;;;5.50;99.90;;;;;;8355601;28;19932;-71
2023/11/12 02:13:21;;;;;;;;;;;5.50;99.90;;;;;;8354094;28;19932;-71
2023/11/12 02:17:26;;;;;;;;;;;5.40;99.90;;;;;;8348895;28;19943;-71
2023/11/12 02:21:32;;;;;;;;;;;5.40;99.90;;;;;;8356370;28;19925;-71
2023/11/12 02:25:33;;;;;;;;;;;5.30;99.90;;;;;;8364261;28;19990;-71
2023/11/12 02:29:35;;;;;;;;;;;5.30;99.90;;;;;;8360797;28;19925;-71
2023/11/12 02:33:38;;;;;;;;;;;5.30;99.90;;;;;;8339811;28;19924;-71
2023/11/12 02:37:40;;;;;;;;;;;5.20;99.90;;;;;;8361508;28;19925;-71
2023/11/12 02:41:44;;;;;;;;;;;5.20;99.90;;;;;;8360359;28;19933;-71
2023/11/12 02:45:46;;;;;;;;;;;5.10;99.90;;;;;;8362834;28;19931;-71
2023/11/12 02:50:10;;;;;;;;;;;5.10;99.90;;;;;;8362964;28;19960;-72
2023/11/12 02:54:12;;;;;;;;;;;5.10;99.90;;;;;;8357642;28;19944;-70
2023/11/12 02:58:16;;;;;;;;;;;5.00;99.90;;;;;;8363048;28;20007;-71
2023/11/12 03:02:19;;;;;;;;;;;5.00;99.90;;;;;;8357737;28;20376;-71
2023/11/12 03:06:20;;;;;;;;;;;5.00;99.90;;;;;;8360052;28;19925;-71
2023/11/12 03:10:22;;;;;;;;;;;4.90;99.90;;;;;;8345697;28;19956;-71
2023/11/12 03:14:24;;;;;;;;;;;4.90;99.90;;;;;;8353952;28;20344;-71
2023/11/12 03:18:26;;;;;;;;;;;4.90;99.90;;;;;;8353200;28;19935;-71
2023/11/12 03:22:27;;;;;;;;;;;4.80;99.90;;;;;;8357737;28;19970;-71
2023/11/12 03:26:29;;;;;;;;;;;4.80;99.90;;;;;;8361177;28;19925;-71
2023/11/12 03:30:31;;;;;;;;;;;4.70;99.90;;;;;;8361010;28;20388;-72
2023/11/12 03:34:32;;;;;;;;;;;4.70;99.90;;;;;;8356084;28;20020;-71
2023/11/12 03:38:34;;;;;;;;;;;4.70;99.90;;;;;;8360305;28;19933;-72
2023/11/12 03:42:36;;;;;;;;;;;4.60;99.90;;;;;;8359530;28;20369;-72
2023/11/12 03:46:37;;;;;;;;;;;4.60;99.90;;;;;;8342578;28;19933;-71
2023/11/12 03:50:39;;;;;;;;;;;4.60;99.90;;;;;;8357965;28;21497;-72
2023/11/12 03:54:41;;;;;;;;;;;4.60;99.90;;;;;;8359186;28;19928;-70
2023/11/12 03:58:43;;;;;;;;;;;4.60;99.90;;;;;;8359071;28;19945;-73
2023/11/12 04:02:45;;;;;;;;;;;4.60;99.90;;;;;;8359272;28;19925;-71
2023/11/12 04:06:47;;;;;;;;;;;4.50;99.90;;;;;;8360383;28;19924;-71
2023/11/12 04:10:48;;;;;;;;;;;4.50;99.90;;;;;;8339275;28;19940;-71
2023/11/12 04:14:50;;;;;;;;;;;4.50;99.90;;;;;;8353270;28;19925;-71
2023/11/12 04:18:52;;;;;;;;;;;4.50;99.90;;;;;;8355042;28;19972;-71
2023/11/12 04:22:57;;;;;;;;;;;4.50;99.90;;;;;;8355843;28;19925;-71
2023/11/12 04:26:59;;;;;;;;;;;4.50;99.90;;;;;;8359650;28;19924;-71
2023/11/12 04:31:02;;;;;;;;;;;4.50;99.90;;;;;;8357059;28;19929;-71
2023/11/12 04:35:06;;;;;;;;;;;4.50;99.90;;;;;;8358447;28;19933;-71
2023/11/12 04:39:07;;;;;;;;;;;4.50;99.90;;;;;;8358929;28;19925;-71
2023/11/12 04:43:09;;;;;;;;;;;4.40;99.90;;;;;;8337773;28;19925;-71
2023/11/12 04:47:11;;;;;;;;;;;4.50;99.90;;;;;;8356709;28;19939;-72
2023/11/12 04:51:13;;;;;;;;;;;4.40;99.90;;;;;;8358741;28;19925;-71
2023/11/12 04:55:14;;;;;;;;;;;4.30;99.90;;;;;;8338696;28;19928;-70
2023/11/12 04:59:16;;;;;;;;;;;4.30;99.90;;;;;;8355921;28;20369;-71
2023/11/12 05:03:17;;;;;;;;;;;4.30;99.90;;;;;;8354880;28;19924;-72
2023/11/12 05:07:19;;;;;;;;;;;4.20;99.90;;;;;;8358023;28;19978;-71
2023/11/12 05:11:21;;;;;;;;;;;4.20;99.90;;;;;;8330644;28;19925;-71
2023/11/12 05:15:22;;;;;;;;;;;4.20;99.90;;;;;;8349740;28;19925;-71
2023/11/12 05:19:24;;;;;;;;;;;4.20;99.90;;;;;;8353066;28;19925;-71
2023/11/12 05:23:26;;;;;;;;;;;4.20;99.90;;;;;;8352624;28;19925;-72
2023/11/12 05:27:28;;;;;;;;;;;4.20;99.90;;;;;;8357388;28;19992;-71
2023/11/12 05:31:32;;;;;;;;;;;4.20;99.90;;;;;;8330323;28;19925;-71
2023/11/12 05:35:34;;;;;;;;;;;4.20;99.90;;;;;;8356744;28;19979;-71
2023/11/12 05:39:36;;;;;;;;;;;4.20;99.90;;;;;;8354334;28;20461;-72
2023/11/12 05:43:38;;;;;;;;;;;4.20;99.90;;;;;;8354471;28;19931;-71
2023/11/12 05:47:40;;;;;;;;;;;4.30;99.90;;;;;;8357685;28;19951;-71
2023/11/12 05:51:42;;;;;;;;;;;4.40;99.90;;;;;;8332605;28;19932;-71
2023/11/12 05:55:43;;;;;;;;;;;4.40;99.90;;;;;;8351857;28;19929;-70
2023/11/12 05:59:46;;;;;;;;;;;4.40;99.90;;;;;;8337172;28;20409;-71
2023/11/12 06:03:47;;;;;;;;;;;4.50;99.90;;;;;;8352791;28;20285;-71
2023/11/12 06:07:49;;;;;;;;;;;4.50;99.90;;;;;;8335242;28;19925;-71
2023/11/12 06:11:53;;;;;;;;;;;4.60;99.90;;;;;;8327001;28;19983;-71
2023/11/12 06:15:55;;;;;;;;;;;4.60;99.90;;;;;;8346081;28;20340;-71
2023/11/12 06:19:57;;;;;;;;;;;4.60;99.90;;;;;;8352018;28;19925;-70
2023/11/12 06:23:58;;;;;;;;;;;4.60;99.90;;;;;;8351548;28;19947;-71
2023/11/12 06:28:00;;;;;;;;;;;4.70;99.90;;;;;;8354042;28;19925;-70
2023/11/12 06:32:02;;;;;;;;;;;4.70;99.90;;;;;;8362561;28;20000;-70
2023/11/12 06:36:04;;;;;;;;;;;4.70;99.90;;;;;;8314176;28;20002;-72
2023/11/12 06:40:06;;;;;;;;;;;4.70;99.90;;;;;;8358253;28;19956;-72
2023/11/12 06:44:09;;;;;;;;;;;4.70;99.90;;;;;;8346846;28;20357;-70
2023/11/12 06:48:13;;;;;;;;;;;4.70;99.90;;;;;;8350553;28;19932;-71
2023/11/12 06:52:16;;;;;;;;;;;4.80;99.90;;;;;;8349382;28;19929;-71
2023/11/12 06:56:20;;;;;;;;;;;4.80;99.90;;;;;;8353339;28;20389;-71
2023/11/12 07:00:22;;;;;;;;;;;4.80;99.90;;;;;;8353382;28;19925;-71
2023/11/12 07:04:24;;;;;;;;;;;4.90;99.90;;;;;;8351932;28;19968;-71
2023/11/12 07:08:27;;;;;;;;;;;4.90;99.90;;;;;;8352759;28;19936;-71
2023/11/12 07:12:30;;;;;;;;;;;4.90;99.90;;;;;;8337071;28;19979;-71
2023/11/12 07:16:32;;;;;;;;;;;5.00;99.90;;;;;;8355451;28;20306;-71
2023/11/12 07:20:34;;;;;;;;;;;5.00;99.90;;;;;;8360372;28;19928;-71
2023/11/12 07:24:36;;;;;;;;;;;5.00;99.90;;;;;;8354415;28;19925;-71
2023/11/12 07:28:38;;;;;;;;;;;5.00;99.90;;;;;;8340833;28;19956;-71
2023/11/12 07:32:39;;;;;;;;;;;5.00;99.90;;;;;;8359106;28;19929;-71
2023/11/12 07:36:41;;;;;;;;;;;5.10;99.90;;;;;;8360154;28;19928;-72
2023/11/12 07:40:43;;;;;;;;;;;5.10;99.90;;;;;;8358973;28;19960;-71
2023/11/12 07:44:45;;;;;;;;;;;5.10;99.90;;;;;;8355756;28;19932;-72
2023/11/12 07:48:50;;;;;;;;;;;5.20;99.90;;;;;;8357499;28;19967;-71
2023/11/12 07:52:52;;;;;;;;;;;5.20;99.90;;;;;;8357414;28;20020;-71
2023/11/12 07:56:54;;;;;;;;;;;5.30;99.90;;;;;;8359627;28;19924;-71
2023/11/12 08:00:55;;;;;;;;;;;5.40;99.90;;;;;;8358532;28;20261;-72
2023/11/12 08:04:57;;;;;;;;;;;5.50;99.90;;;;;;8355469;28;19925;-70
2023/11/12 08:09:00;;;;;;;;;;;5.50;99.90;;;;;;8351903;28;19968;-71
2023/11/12 08:13:01;;;;;;;;;;;5.60;99.90;;;;;;8355573;28;20019;-71
2023/11/12 08:17:03;;;;;;;;;;;5.70;99.90;;;;;;8350373;28;20058;-72
2023/11/12 08:21:05;;;;;;;;;;;5.80;99.90;;;;;;8332336;28;19932;-72
2023/11/12 08:25:09;;;;;;;;;;;5.90;99.90;;;;;;8353708;28;20284;-71
2023/11/12 08:29:11;;;;;;;;;;;6.10;99.90;;;;;;8359725;28;19924;-72
2023/11/12 08:33:13;;;;;;;;;;;6.10;99.90;;;;;;8353063;28;19925;-71
2023/11/12 08:37:14;;;;;;;;;;;6.20;99.90;;;;;;8356371;28;19931;-71
2023/11/12 08:41:16;;;;;;;;;;;6.20;99.90;;;;;;8359121;28;19983;-71
2023/11/12 08:45:18;;;;;;;;;;;6.30;99.90;;;;;;8356630;28;19924;-71
2023/11/12 08:49:21;;;;;;;;;;;6.40;99.90;;;;;;8361011;28;19925;-71
2023/11/12 08:53:23;;;;;;;;;;;6.50;99.90;;;;;;8351917;28;20410;-71
2023/11/12 08:57:24;;;;;;;;;;;6.60;99.90;;;;;;8356493;28;19932;-71
2023/11/12 09:01:26;;;;;;;;;;;6.80;99.90;;;;;;8354770;28;20328;-71
2023/11/12 09:05:28;;;;;;;;;;;7.10;99.90;;;;;;8330759;28;19933;-71
2023/11/12 09:09:32;;;;;;;;;;;7.50;99.90;;;;;;8347749;28;19925;-72
2023/11/12 09:13:34;;;;;;;;;;;7.90;99.90;;;;;;8346982;28;19932;-71
2023/11/12 09:17:36;;;;;;;;;;;8.10;99.90;;;;;;8348246;28;19924;-71
2023/11/12 09:21:37;;;;;;;;;;;8.20;99.90;;;;;;8353102;28;19944;-71
2023/11/12 09:25:39;;;;;;;;;;;8.20;99.90;;;;;;8354524;28;19936;-71
2023/11/12 09:29:41;;;;;;;;;;;8.10;99.90;;;;;;8337514;28;20042;-72
2023/11/12 09:33:43;;;;;;;;;;;8.10;99.90;;;;;;8339847;28;19925;-71
2023/11/12 09:37:44;;;;;;;;;;;8.10;99.90;;;;;;8348646;28;20372;-71
2023/11/12 09:41:49;;;;;;;;;;;8.00;99.90;;;;;;8347561;28;19936;-71
2023/11/12 09:45:55;;;;;;;;;;;7.80;99.90;;;;;;8345559;28;20385;-72
2023/11/12 09:49:57;;;;;;;;;;;7.80;99.90;;;;;;8347611;28;19940;-71
2023/11/12 09:53:59;;;;;;;;;;;7.80;99.90;;;;;;8341733;28;19933;-71
2023/11/12 09:58:01;;;;;;;;;;;7.80;99.90;;;;;;8352469;28;20376;-71
2023/11/12 10:02:05;;;;;;;;;;;7.90;99.90;;;;;;8353165;28;19932;-71
2023/11/12 10:06:09;;;;;;;;;;;7.90;99.90;;;;;;8357173;28;20294;-71
2023/11/12 10:10:24;;;;;;;;;;;8.10;99.90;;;;;;8355845;28;19925;-72
2023/11/12 10:14:26;;;;;;;;;;;8.40;99.90;;;;;;8345030;28;19925;-71
2023/11/12 10:18:28;;;;;;;;;;;8.80;99.90;;;;;;8351228;28;20007;-71
2023/11/12 10:22:36;;;;;;;;;;;9.40;99.90;;;;;;8321095;28;20258;-72
2023/11/12 10:26:38;;;;;;;;;;;9.80;99.90;;;;;;8325120;28;20019;-71
2023/11/12 10:30:41;;;;;;;;;;;10.00;99.90;;;;;;8320914;28;19929;-71
2023/11/12 10:34:49;;;;;;;;;;;10.10;99.90;;;;;;8319465;28;20373;-72
2023/11/12 10:38:52;;;;;;;;;;;10.30;99.90;;;;;;8320664;28;20486;-71
2023/11/12 10:43:00;;;;;;;;;;;10.40;99.90;;;;;;8320292;28;20296;-71
2023/11/12 10:47:03;;;;;;;;;;;10.40;99.90;;;;;;8332392;28;20320;-71
2023/11/12 10:51:10;;;;;;;;;;;10.20;99.90;;;;;;8329279;28;20588;-71
2023/11/12 10:55:13;;;;;;;;;;;10.00;99.90;;;;;;8327039;28;19972;-71
2023/11/12 10:59:15;;;;;;;;;;;9.80;99.90;;;;;;8329143;28;19996;-71
2023/11/12 11:03:17;;;;;;;;;;;9.70;99.90;;;;;;8326714;28;19925;-71
2023/11/12 11:07:18;;;;;;;;;;;9.60;99.90;;;;;;8326674;28;19933;-71
2023/11/12 11:11:22;;;;;;;;;;;9.50;99.90;;;;;;8327758;28;19925;-71
2023/11/12 11:15:42;;;;;;;;;;;9.40;99.90;;;;;;8324308;28;20396;-71
2023/11/12 11:19:43;;;;;;;;;;;9.30;99.90;;;;;;8326618;28;19932;-71
2023/11/12 11:23:52;;;;;;;;;;;9.30;99.90;;;;;;8326646;28;19982;-72
2023/11/12 11:28:12;;;;;;;;;;;9.10;99.90;;;;;;8328998;28;19929;-71
2023/11/12 11:32:14;;;;;;;;;;;9.10;99.90;;;;;;8323364;28;20032;-71
2023/11/12 11:36:16;;;;;;;;;;;9.10;99.90;;;;;;8327636;28;19935;-71
2023/11/12 11:40:28;;;;;;;;;;;9.10;99.90;;;;;;8325045;28;20347;-71
2023/11/12 11:44:43;;;;;;;;;;;9.10;99.90;;;;;;8324860;28;19964;-71
2023/11/12 11:48:46;;;;;;;;;;;9.30;99.90;;;;;;8322260;28;19948;-71
2023/11/12 11:52:49;;;;;;;;;;;9.40;99.90;;;;;;8324248;28;19972;-71
2023/11/12 11:56:52;;;;;;;;;;;9.40;99.90;;;;;;8328533;28;19932;-71
2023/11/12 12:00:58;;;;;;;;;;;9.20;99.90;;;;;;8325970;28;19968;-71
2023/11/12 12:05:00;;;;;;;;;;;8.90;99.90;;;;;;8323990;28;20331;-70
2023/11/12 12:09:02;;;;;;;;;;;8.70;99.90;;;;;;8324495;28;19956;-71
2023/11/12 12:13:05;;;;;;;;;;;8.30;99.90;;;;;;8324879;28;19984;-71
2023/11/12 12:17:07;;;;;;;;;;;8.10;99.90;;;;;;8324296;28;20005;-71
2023/11/12 12:21:09;;;;;;;;;;;7.90;99.90;;;;;;8323098;28;19937;-71
2023/11/12 12:25:11;;;;;;;;;;;7.70;99.90;;;;;;8324900;28;20245;-71
2023/11/12 12:29:12;;;;;;;;;;;7.60;99.90;;;;;;8320961;28;19951;-71
2023/11/12 12:33:15;;;;;;;;;;;7.60;99.90;;;;;;8327041;28;19951;-71
2023/11/12 12:37:21;;;;;;;;;;;7.50;99.90;;;;;;8304859;28;19936;-71
2023/11/12 12:41:23;;;;;;;;;;;7.40;99.90;;;;;;8324205;28;19925;-72
2023/11/12 12:45:25;;;;;;;;;;;7.40;99.90;;;;;;8321882;28;19982;-71
2023/11/12 12:49:33;;;;;;;;;;;7.40;99.90;;;;;;8303725;28;19925;-71
2023/11/12 12:53:36;;;;;;;;;;;7.40;99.90;;;;;;8322639;28;20396;-71
2023/11/12 12:57:40;;;;;;;;;;;7.50;99.90;;;;;;8325378;28;19979;-71
2023/11/12 13:01:44;;;;;;;;;;;7.60;99.90;;;;;;8322864;28;20273;-72
2023/11/12 13:15:53;;;;;;;;;;;7.80;99.90;;;;;;8326281;28;19924;-70
2023/11/12 13:19:55;;;;;;;;;;;7.80;99.90;;;;;;8298966;28;19925;-71
2023/11/12 13:23:57;;;;;;;;;;;7.80;99.90;;;;;;8319813;28;19925;-72
2023/11/12 13:28:02;;;;;;;;;;;7.80;99.90;;;;;;8323611;28;19925;-71
2023/11/12 13:32:06;;;;;;;;;;;7.80;99.90;;;;;;8318373;28;19929;-71
2023/11/12 13:36:09;;;;;;;;;;;7.80;99.90;;;;;;8324347;28;20411;-71
2023/11/12 13:40:14;;;;;;;;;;;7.80;99.90;;;;;;8301931;28;19963;-71
2023/11/12 13:44:18;;;;;;;;;;;7.80;99.90;;;;;;8324115;28;20416;-71
2023/11/12 13:48:20;;;;;;;;;;;7.70;99.90;;;;;;8320363;28;19925;-71
2023/11/12 13:52:22;;;;;;;;;;;7.60;99.90;;;;;;8323388;28;20303;-71
2023/11/12 13:56:24;;;;;;;;;;;7.60;99.90;;;;;;8322266;28;19929;-71
2023/11/12 14:00:27;;;;;;;;;;;7.60;99.90;;;;;;8322056;28;19931;-71
2023/11/12 14:04:32;;;;;;;;;;;7.50;99.90;;;;;;8312148;28;19975;-72
2023/11/12 14:08:35;;;;;;;;;;;7.50;99.90;;;;;;8324811;28;20447;-71
2023/11/12 14:12:37;;;;;;;;;;;7.40;99.90;;;;;;8320710;28;19973;-71
2023/11/12 14:16:39;;;;;;;;;;;7.30;99.90;;;;;;8323176;28;19954;-71
2023/11/12 14:20:41;;;;;;;;;;;7.30;99.90;;;;;;8327458;28;19925;-70
2023/11/12 14:24:42;;;;;;;;;;;7.30;99.90;;;;;;8319380;28;19972;-71
2023/11/12 14:28:44;;;;;;;;;;;7.20;99.90;;;;;;8321640;28;19932;-71
2023/11/12 14:32:46;;;;;;;;;;;7.30;99.90;;;;;;8323764;28;19925;-71
2023/11/12 14:36:51;;;;;;;;;;;7.30;99.90;;;;;;8319549;28;19955;-71
2023/11/12 14:40:53;;;;;;;;;;;7.40;99.90;;;;;;8320088;28;19932;-71
2023/11/12 14:44:55;;;;;;;;;;;7.40;99.90;;;;;;8321885;28;20573;-71
2023/11/12 14:48:56;;;;;;;;;;;7.40;99.90;;;;;;8323568;28;19940;-71
2023/11/12 14:52:59;;;;;;;;;;;7.40;99.90;;;;;;8327891;28;19925;-72
2023/11/12 14:57:00;;;;;;;;;;;7.50;99.90;;;;;;8325082;28;19925;-72
2023/11/12 15:01:05;;;;;;;;;;;7.50;99.90;;;;;;8331057;28;20368;-71
2023/11/12 15:05:08;;;;;;;;;;;7.50;99.90;;;;;;8322946;28;19928;-71
2023/11/12 15:09:10;;;;;;;;;;;7.50;99.90;;;;;;8318549;28;19925;-71
2023/11/12 15:13:12;;;;;;;;;;;7.50;99.90;;;;;;8321509;28;20377;-71
2023/11/12 15:17:14;;;;;;;;;;;7.50;99.90;;;;;;8319009;28;19925;-71
2023/11/12 15:21:16;;;;;;;;;;;7.40;99.90;;;;;;8320331;28;19933;-71
2023/11/12 15:25:18;;;;;;;;;;;7.40;99.90;;;;;;8318733;28;19925;-71
2023/11/12 15:29:23;;;;;;;;;;;7.40;99.90;;;;;;8320078;28;19936;-71
2023/11/12 15:33:25;;;;;;;;;;;7.40;99.90;;;;;;8329377;28;19939;-71
2023/11/12 15:37:27;;;;;;;;;;;7.40;99.90;;;;;;8329526;28;19925;-70
2023/11/12 15:41:28;;;;;;;;;;;7.40;99.90;;;;;;8329621;28;19941;-71
2023/11/12 15:45:31;;;;;;;;;;;7.40;99.90;;;;;;8324647;28;20288;-71
2023/11/12 15:49:33;;;;;;;;;;;7.40;99.90;;;;;;8320195;28;19933;-71
2023/11/12 15:53:34;;;;;;;;;;;7.40;99.90;;;;;;8339094;28;19987;-71
2023/11/12 15:57:36;;;;;;;;;;;7.50;99.90;;;;;;8325777;28;19936;-71
2023/11/12 16:01:38;;;;;;;;;;;7.50;99.90;;;;;;8326067;28;19928;-71
2023/11/12 16:05:40;;;;;;;;;;;7.50;99.90;;;;;;8324075;28;19979;-71
2023/11/12 16:09:42;;;;;;;;;;;7.50;99.90;;;;;;8328321;28;19932;-71
2023/11/12 16:13:44;;;;;;;;;;;7.50;99.90;;;;;;8324828;28;19929;-71
2023/11/12 16:17:46;;;;;;;;;;;7.50;99.90;;;;;;8321575;28;19956;-71
2023/11/12 16:21:48;;;;;;;;;;;7.50;99.90;;;;;;8327525;28;19987;-71
2023/11/12 16:25:50;;;;;;;;;;;7.50;99.90;;;;;;8324082;28;20024;-71
2023/11/12 16:29:51;;;;;;;;;;;7.50;99.90;;;;;;8325770;28;19932;-71
2023/11/12 16:33:53;;;;;;;;;;;7.50;99.90;;;;;;8327052;28;20242;-72
2023/11/12 16:37:56;;;;;;;;;;;7.50;99.90;;;;;;8324229;28;20024;-71
2023/11/12 16:41:57;;;;;;;;;;;7.50;99.90;;;;;;8329073;28;19952;-71
2023/11/12 16:45:59;;;;;;;;;;;7.50;99.90;;;;;;8320628;28;19979;-72
2023/11/12 16:50:01;;;;;;;;;;;7.50;99.90;;;;;;8301128;28;19983;-71
2023/11/12 16:54:03;;;;;;;;;;;7.50;99.90;;;;;;8317504;28;20324;-70
2023/11/12 16:58:05;;;;;;;;;;;7.60;99.90;;;;;;8322936;28;19978;-72
2023/11/12 17:02:08;;;;;;;;;;;7.60;99.90;;;;;;8321805;28;19929;-71
2023/11/12 17:06:10;;;;;;;;;;;7.60;99.90;;;;;;8323752;28;20407;-72
2023/11/12 17:10:14;;;;;;;;;;;7.60;99.90;;;;;;8319835;28;19925;-71
2023/11/12 17:14:16;;;;;;;;;;;7.70;99.90;;;;;;8321903;28;20020;-71
2023/11/12 17:18:18;;;;;;;;;;;7.70;99.90;;;;;;8322615;28;20384;-71
2023/11/12 17:22:20;;;;;;;;;;;7.70;99.90;;;;;;8323041;28;20395;-72
2023/11/12 17:26:22;;;;;;;;;;;7.70;99.90;;;;;;8301013;28;19932;-71
2023/11/12 17:30:25;;;;;;;;;;;7.70;99.90;;;;;;8320625;28;19972;-72
2023/11/12 17:34:26;;;;;;;;;;;7.80;99.90;;;;;;8320162;28;19935;-71
2023/11/12 17:38:28;;;;;;;;;;;7.80;99.90;;;;;;8323840;28;20345;-72
2023/11/12 17:42:30;;;;;;;;;;;7.70;99.90;;;;;;8321208;28;19940;-72
2023/11/12 17:46:31;;;;;;;;;;;7.60;99.90;;;;;;8320075;28;19979;-71
2023/11/12 17:50:33;;;;;;;;;;;7.60;99.90;;;;;;8323224;28;19935;-72
2023/11/12 17:54:37;;;;;;;;;;;7.50;99.90;;;;;;8319891;28;19980;-71
2023/11/12 17:58:38;;;;;;;;;;;7.40;99.90;;;;;;8320220;28;20143;-71
2023/11/12 18:02:41;;;;;;;;;;;7.30;99.90;;;;;;8319561;28;19925;-71
2023/11/12 18:06:45;;;;;;;;;;;7.20;99.90;;;;;;8320082;28;19933;-71
2023/11/12 18:10:47;;;;;;;;;;;7.10;99.90;;;;;;8321972;28;19979;-71
2023/11/12 18:14:48;;;;;;;;;;;7.10;99.90;;;;;;8319969;28;20435;-71
2023/11/12 18:18:50;;;;;;;;;;;7.00;99.90;;;;;;8321734;28;19971;-71
2023/11/12 18:22:52;;;;;;;;;;;7.00;99.90;;;;;;8322830;28;19932;-71
2023/11/12 18:26:55;;;;;;;;;;;6.90;99.90;;;;;;8326803;28;19933;-71
2023/11/12 18:30:57;;;;;;;;;;;6.80;99.90;;;;;;8326675;28;19933;-71
2023/11/12 18:34:58;;;;;;;;;;;6.80;99.90;;;;;;8322804;28;20442;-71
2023/11/12 18:39:00;;;;;;;;;;;6.70;99.90;;;;;;8320367;28;19932;-71
2023/11/12 18:43:02;;;;;;;;;;;6.60;99.90;;;;;;8321675;28;19983;-71
2023/11/12 18:47:05;;;;;;;;;;;6.60;99.90;;;;;;8322591;28;19929;-71
2023/11/12 18:51:07;;;;;;;;;;;6.50;99.90;;;;;;8319448;28;19988;-71
2023/11/12 18:55:09;;;;;;;;;;;6.40;99.90;;;;;;8320357;28;19929;-71
2023/11/12 18:59:11;;;;;;;;;;;6.30;99.90;;;;;;8321110;28;19929;-71
2023/11/12 19:03:13;;;;;;;;;;;6.30;99.90;;;;;;8321773;28;19929;-71
2023/11/12 19:07:15;;;;;;;;;;;6.20;99.90;;;;;;8326773;28;19986;-71
2023/11/12 19:11:17;;;;;;;;;;;6.00;99.90;;;;;;8326131;28;19933;-71
2023/11/12 19:15:19;;;;;;;;;;;6.00;99.90;;;;;;8327761;28;19925;-71
2023/11/12 19:19:21;;;;;;;;;;;5.90;99.90;;;;;;8330798;28;20366;-71
2023/11/12 19:23:24;;;;;;;;;;;5.90;99.90;;;;;;8334974;28;19972;-71
2023/11/12 19:27:26;;;;;;;;;;;5.80;99.90;;;;;;8327448;28;19951;-71
2023/11/12 19:31:28;;;;;;;;;;;5.80;99.90;;;;;;8326589;28;19929;-71
2023/11/12 19:35:34;;;;;;;;;;;5.70;99.90;;;;;;8324085;28;20292;-71
2023/11/12 19:39:36;;;;;;;;;;;5.60;99.90;;;;;;8323929;28;20553;-71
2023/11/12 19:43:37;;;;;;;;;;;5.60;99.90;;;;;;8323966;28;19941;-71
2023/11/12 19:47:39;;;;;;;;;;;5.60;99.90;;;;;;8324785;28;19932;-72
2023/11/12 19:51:41;;;;;;;;;;;5.50;99.90;;;;;;8325537;28;19932;-71
2023/11/12 19:55:43;;;;;;;;;;;5.50;99.90;;;;;;8338826;28;19929;-71
2023/11/12 19:59:45;;;;;;;;;;;5.40;99.90;;;;;;8327029;28;19929;-71
2023/11/12 20:03:47;;;;;;;;;;;5.40;99.90;;;;;;8322386;28;19929;-71
2023/11/12 20:07:49;;;;;;;;;;;5.40;99.90;;;;;;8322978;28;19929;-71
2023/11/12 20:11:51;;;;;;;;;;;5.40;99.90;;;;;;8323488;28;19924;-71
2023/11/12 20:15:53;;;;;;;;;;;5.40;99.90;;;;;;8325262;28;19964;-71
2023/11/12 20:19:55;;;;;;;;;;;5.50;99.90;;;;;;8322654;28;19940;-72
2023/11/12 20:23:57;;;;;;;;;;;5.50;99.90;;;;;;8325827;28;19933;-71
2023/11/12 20:27:59;;;;;;;;;;;5.50;99.90;;;;;;8350403;28;19929;-71
2023/11/12 20:32:00;;;;;;;;;;;5.60;99.90;;;;;;8331328;28;19952;-72
2023/11/12 20:36:02;;;;;;;;;;;5.60;99.90;;;;;;8305938;28;20409;-71
2023/11/12 20:40:08;;;;;;;;;;;5.70;99.90;;;;;;8323275;28;20356;-71
2023/11/12 20:44:13;;;;;;;;;;;5.70;99.90;;;;;;8305480;28;19925;-72
2023/11/12 20:48:16;;;;;;;;;;;5.80;99.90;;;;;;8327020;28;19933;-71
2023/11/12 20:52:18;;;;;;;;;;;5.90;99.90;;;;;;8327390;28;19955;-71
2023/11/12 20:56:20;;;;;;;;;;;5.80;99.90;;;;;;8327286;28;19964;-71
2023/11/12 21:00:22;;;;;;;;;;;5.90;99.90;;;;;;8324760;28;19952;-71
2023/11/12 21:04:24;;;;;;;;;;;5.90;99.90;;;;;;8305758;28;19925;-72
2023/11/12 21:08:26;;;;;;;;;;;5.90;99.90;;;;;;8323255;28;19971;-71
2023/11/12 21:12:28;;;;;;;;;;;5.80;99.90;;;;;;8321056;28;20307;-71
2023/11/12 21:16:29;;;;;;;;;;;5.80;99.90;;;;;;8322712;28;20019;-71
2023/11/12 21:20:32;;;;;;;;;;;5.80;99.90;;;;;;8323075;28;20016;-72
2023/11/12 21:24:34;;;;;;;;;;;5.80;99.90;;;;;;8318312;28;20471;-71
2023/11/12 21:28:35;;;;;;;;;;;5.80;99.90;;;;;;8319803;28;20058;-72
2023/11/12 21:32:37;;;;;;;;;;;5.70;99.90;;;;;;8304137;28;19989;-71
2023/11/12 21:36:39;;;;;;;;;;;5.70;99.90;;;;;;8322743;28;19929;-71
2023/11/12 21:40:41;;;;;;;;;;;5.70;99.90;;;;;;8323530;28;19932;-71
2023/11/12 21:44:43;;;;;;;;;;;5.60;99.90;;;;;;8322638;28;19975;-71
2023/11/12 21:48:47;;;;;;;;;;;5.60;99.90;;;;;;8321311;28;19924;-71
2023/11/12 21:52:51;;;;;;;;;;;5.60;99.90;;;;;;8315582;28;19932;-72
2023/11/12 21:56:53;;;;;;;;;;;5.60;99.90;;;;;;8322612;28;20368;-72
2023/11/12 22:00:57;;;;;;;;;;;5.60;99.90;;;;;;8328521;28;19971;-71
2023/11/12 22:05:00;;;;;;;;;;;5.60;99.90;;;;;;8356408;28;20364;-71
2023/11/12 22:09:03;;;;;;;;;;;5.50;99.90;;;;;;8354787;28;19925;-71
2023/11/12 22:13:05;;;;;;;;;;;5.50;99.90;;;;;;8343940;28;20402;-71
2023/11/12 22:17:07;;;;;;;;;;;5.50;99.90;;;;;;8341579;28;19929;-71
2023/11/12 22:21:08;;;;;;;;;;;5.50;99.90;;;;;;8343983;28;19929;-71
2023/11/12 22:25:11;;;;;;;;;;;5.50;99.90;;;;;;8345167;28;20338;-71
2023/11/12 22:29:15;;;;;;;;;;;5.50;99.90;;;;;;8352679;28;19929;-71
2023/11/12 22:33:17;;;;;;;;;;;5.60;99.90;;;;;;8357569;28;19968;-71
2023/11/12 22:37:18;;;;;;;;;;;5.60;99.90;;;;;;8356767;28;19929;-71
2023/11/12 22:41:20;;;;;;;;;;;5.70;99.90;;;;;;8351219;28;19939;-71
2023/11/12 22:45:22;;;;;;;;;;;5.70;99.90;;;;;;8351684;28;19933;-71
2023/11/12 22:49:24;;;;;;;;;;;5.80;99.90;;;;;;8349265;28;19933;-71
2023/11/12 22:53:26;;;;;;;;;;;5.80;99.90;;;;;;8353194;28;20027;-71
2023/11/12 22:57:30;;;;;;;;;;;5.80;99.90;;;;;;8362925;28;19925;-71
2023/11/12 23:01:31;;;;;;;;;;;5.80;99.90;;;;;;8352754;28;20078;-71
2023/11/12 23:05:34;;;;;;;;;;;5.80;99.90;;;;;;8353682;28;19973;-72
2023/11/12 23:09:36;;;;;;;;;;;5.80;99.90;;;;;;8361547;28;19979;-72
2023/11/12 23:13:37;;;;;;;;;;;5.80;99.90;;;;;;8358834;28;19968;-71
2023/11/12 23:17:40;;;;;;;;;;;5.70;99.90;;;;;;8351810;28;20299;-71
2023/11/12 23:21:42;;;;;;;;;;;5.70;99.90;;;;;;8350606;28;19933;-71
2023/11/12 23:25:44;;;;;;;;;;;5.70;99.90;;;;;;8335772;28;19936;-71
2023/11/12 23:29:48;;;;;;;;;;;5.70;99.90;;;;;;8352071;28;21434;-72
2023/11/12 23:33:50;;;;;;;;;;;5.60;99.90;;;;;;8348017;28;19932;-71
2023/11/12 23:37:52;;;;;;;;;;;5.70;99.90;;;;;;8348337;28;19977;-71
2023/11/12 23:41:54;;;;;;;;;;;5.60;99.90;;;;;;8331952;28;19924;-71
2023/11/12 23:45:55;;;;;;;;;;;5.60;99.90;;;;;;8345194;28;19925;-71
2023/11/12 23:49:57;;;;;;;;;;;5.60;99.90;;;;;;8362257;28;19925;-71
2023/11/12 23:54:00;;;;;;;;;;;5.50;99.90;;;;;;8341072;28;19932;-71
2023/11/12 23:58:03;;;;;;;;;;;5.50;99.90;;;;;;8353222;28;19924;-71
